Flight Track Log - Related Links

Times and Time Zones

All times are in EDT time to prevent confusion due to time zone crossing. See the N775NC flight status page for this flight to view local times or setup timezone preferences in your user account.


Time Position Orientation Groundspeed Altitude Reporting Facility
EDT Latitude Longitude Course Direction KTS MPH feet Rate Location/Type
Fri 04:38:40 PM 33.6561 -84.3708 280° West 378 435 2,500  Level Atlanta Center
Fri 04:39:40 PM 33.6897 -84.2933 62° Northeast 306 352 4,900 2,300 Climbing Atlanta Center
Fri 04:40:40 PM 33.7564 -84.2786 10° North 233 268 7,100 2,400 Climbing Atlanta Center
Fri 04:41:00 PM 33.6824 -84.8745 277° West  Level FlightAware Approximate
Fri 04:41:40 PM 33.8189 -84.3339 324° Northwest 287 330 9,700  Level Atlanta Center
Fri 04:42:00 PM 33.6963 -84.9740 280° West  Level FlightAware Approximate
Fri 04:42:40 PM 33.8125 -84.4189 265° West 298 343 12,000  Level Atlanta Center
Fri 04:43:00 PM 33.7122 -85.0849 280° West  Level FlightAware Approximate
Fri 04:43:40 PM 33.7808 -84.5236 250° West 292 336 14,300  Level Atlanta Center
Fri 04:44:40 PM 33.7511 -84.6258 251° West 306 352 15,500 1,050 Climbing Atlanta Center
Fri 04:45:40 PM 33.7214 -84.7406 253° West 337 388 16,400 950 Climbing Atlanta Center
Fri 04:46:40 PM 33.6956 -84.8728 257° West 373 429 17,400 850 Climbing Atlanta Center
Fri 04:47:40 PM 33.6819 -85.0025 263° West 404 465 18,100 300 Climbing Atlanta Center
Fri 04:48:40 PM 33.6706 -85.1347 264° West 402 463 18,000 -50 Descending Atlanta Center
Fri 04:49:40 PM 33.6589 -85.2642 264° West 402 463 18,000 -300 Level Atlanta Center
Fri 04:50:40 PM 33.6514 -85.3789 266° West 395 455 17,400 -650 Descending Atlanta Center
Fri 04:51:40 PM 33.6456 -85.5161 267° West 402 463 16,700 -850 Descending Atlanta Center
Fri 04:52:40 PM 33.6375 -85.6506 266° West 414 476 15,700 -2,400 Descending Atlanta Center
Fri 04:53:40 PM 33.6150 -85.7750 258° West 393 452 11,900 -2,300 Descending Atlanta Center
Fri 04:54:40 PM 33.5758 -85.8889 248° West 377 434 11,100 -450 Descending Atlanta Center
Fri 04:55:40 PM 33.5344 -85.9953 245° Southwest 372 428 11,000 -50 Descending Atlanta Center
Fri 04:56:40 PM 33.4867 -86.1136 244° Southwest 377 434 11,000 -50 Level Atlanta Center
Fri 04:57:39 PM 33.4344 -86.2417 244° Southwest 392 451 10,900 -555 Descending Atlanta Center
Fri 04:58:39 PM 33.4133 -86.3583 258° West 338 389 9,900 -1,041 Descending Atlanta Center
Fri 04:59:40 PM 33.4053 -86.4525 264° West 271 312 8,800 -1,339 Descending Atlanta Center
Fri 05:00:40 PM 33.4056 -86.5422 270° West 305 351 7,200 -1,650 Descending Atlanta Center
Fri 05:01:40 PM 33.3994 -86.6342 265° West 293 337 5,500 -1,525 Descending Atlanta Center
Fri 05:02:42 PM 33.3933 -86.7283 266° West 270 311 4,100 -750 Descending Atlanta Center
Fri 05:03:40 PM 33.3936 -86.8106 270° West 270 311 4,000 -51 Descending Atlanta Center
Fri 05:04:40 PM 33.3897 -86.8875 267° West 253 291 4,000  Level Atlanta Center
Fri 05:05:40 PM 33.4028 -86.9575 283° West 236 272 4,000 -646 Level Atlanta Center
Fri 05:06:50 PM 33.4575 -86.9394 15° North 185 213 2,600 -672 Descending Atlanta Center
Fri 05:07:45 PM 33.4856 -86.8931 54° Northeast 171 197 2,600 -365 Level Atlanta Center
Fri 05:08:45 PM 33.5139 -86.8417 57° Northeast 183 211 1,900 -694 Descending Atlanta Center
Fri 05:09:46 PM 33.5356 -86.8050 55° Northeast 133 153 1,200 -689 Descending Atlanta Center

Login

Don't have an account? Register now (free) for customized features, flight alerts, and more!